sensor_id;sensor_type;location;lat;lon;timestamp;P1;durP1;ratioP1;P2;durP2;ratioP2
18084;SDS011;9169;44.492;11.372;2024-01-10T00:01:25;32.57;;;9.33;;
18084;SDS011;9169;44.492;11.372;2024-01-10T00:03:53;31.40;;;10.10;;
18084;SDS011;9169;44.492;11.372;2024-01-10T00:06:22;31.97;;;9.83;;
18084;SDS011;9169;44.492;11.372;2024-01-10T00:08:52;35.30;;;10.50;;
18084;SDS011;9169;44.492;11.372;2024-01-10T00:11:20;33.23;;;9.90;;
18084;SDS011;9169;44.492;11.372;2024-01-10T00:13:49;32.53;;;9.07;;
18084;SDS011;9169;44.492;11.372;2024-01-10T00:16:21;35.10;;;9.90;;
18084;SDS011;9169;44.492;11.372;2024-01-10T00:18:49;35.70;;;10.10;;
18084;SDS011;9169;44.492;11.372;2024-01-10T00:21:18;32.63;;;9.90;;
18084;SDS011;9169;44.492;11.372;2024-01-10T00:23:47;32.83;;;9.90;;
18084;SDS011;9169;44.492;11.372;2024-01-10T00:26:16;33.33;;;10.23;;
18084;SDS011;9169;44.492;11.372;2024-01-10T00:28:45;35.63;;;10.07;;
18084;SDS011;9169;44.492;11.372;2024-01-10T00:31:14;35.13;;;9.43;;
18084;SDS011;9169;44.492;11.372;2024-01-10T00:33:44;41.53;;;9.60;;
18084;SDS011;9169;44.492;11.372;2024-01-10T00:36:13;32.57;;;10.33;;
18084;SDS011;9169;44.492;11.372;2024-01-10T00:38:42;31.23;;;10.27;;
18084;SDS011;9169;44.492;11.372;2024-01-10T00:41:11;32.27;;;9.70;;
18084;SDS011;9169;44.492;11.372;2024-01-10T00:43:39;28.73;;;8.90;;
18084;SDS011;9169;44.492;11.372;2024-01-10T00:46:08;30.73;;;9.17;;
18084;SDS011;9169;44.492;11.372;2024-01-10T00:48:37;29.90;;;9.20;;
18084;SDS011;9169;44.492;11.372;2024-01-10T00:51:07;28.20;;;9.20;;
18084;SDS011;9169;44.492;11.372;2024-01-10T00:53:36;28.03;;;9.50;;
18084;SDS011;9169;44.492;11.372;2024-01-10T00:56:06;28.70;;;8.90;;
18084;SDS011;9169;44.492;11.372;2024-01-10T00:58:35;26.77;;;8.10;;
18084;SDS011;9169;44.492;11.372;2024-01-10T01:01:04;27.00;;;9.30;;
18084;SDS011;9169;44.492;11.372;2024-01-10T01:03:33;31.90;;;9.47;;
18084;SDS011;9169;44.492;11.372;2024-01-10T01:06:03;25.37;;;8.23;;
18084;SDS011;9169;44.492;11.372;2024-01-10T01:08:33;29.60;;;8.60;;
18084;SDS011;9169;44.492;11.372;2024-01-10T01:11:02;29.10;;;8.73;;
18084;SDS011;9169;44.492;11.372;2024-01-10T01:13:31;26.60;;;8.50;;
18084;SDS011;9169;44.492;11.372;2024-01-10T01:15:59;34.20;;;8.90;;
18084;SDS011;9169;44.492;11.372;2024-01-10T01:18:29;30.10;;;9.00;;
18084;SDS011;9169;44.492;11.372;2024-01-10T01:20:58;27.00;;;8.57;;
18084;SDS011;9169;44.492;11.372;2024-01-10T01:23:26;28.20;;;8.60;;
18084;SDS011;9169;44.492;11.372;2024-01-10T01:25:59;28.47;;;8.87;;
18084;SDS011;9169;44.492;11.372;2024-01-10T01:28:28;28.10;;;8.63;;
18084;SDS011;9169;44.492;11.372;2024-01-10T01:30:56;25.53;;;8.40;;
18084;SDS011;9169;44.492;11.372;2024-01-10T01:33:25;28.03;;;9.27;;
18084;SDS011;9169;44.492;11.372;2024-01-10T01:35:54;27.37;;;8.30;;
18084;SDS011;9169;44.492;11.372;2024-01-10T01:38:23;25.93;;;7.50;;
18084;SDS011;9169;44.492;11.372;2024-01-10T01:40:51;25.17;;;8.53;;
18084;SDS011;9169;44.492;11.372;2024-01-10T01:43:22;29.43;;;8.33;;
18084;SDS011;9169;44.492;11.372;2024-01-10T01:45:52;24.73;;;8.20;;
18084;SDS011;9169;44.492;11.372;2024-01-10T01:48:23;29.80;;;8.67;;
18084;SDS011;9169;44.492;11.372;2024-01-10T01:50:55;24.90;;;8.70;;
18084;SDS011;9169;44.492;11.372;2024-01-10T01:53:25;27.23;;;7.90;;
18084;SDS011;9169;44.492;11.372;2024-01-10T01:55:57;29.07;;;10.20;;
18084;SDS011;9169;44.492;11.372;2024-01-10T01:58:29;29.77;;;8.93;;
18084;SDS011;9169;44.492;11.372;2024-01-10T02:00:58;26.00;;;8.90;;
18084;SDS011;9169;44.492;11.372;2024-01-10T02:03:30;28.33;;;9.37;;
18084;SDS011;9169;44.492;11.372;2024-01-10T02:06:00;25.30;;;8.23;;
18084;SDS011;9169;44.492;11.372;2024-01-10T02:08:31;25.10;;;8.60;;
18084;SDS011;9169;44.492;11.372;2024-01-10T02:11:01;28.60;;;9.00;;
18084;SDS011;9169;44.492;11.372;2024-01-10T02:13:31;26.83;;;9.10;;
18084;SDS011;9169;44.492;11.372;2024-01-10T02:16:01;26.97;;;8.33;;
18084;SDS011;9169;44.492;11.372;2024-01-10T02:18:31;26.13;;;9.13;;
18084;SDS011;9169;44.492;11.372;2024-01-10T02:21:01;28.37;;;8.93;;
18084;SDS011;9169;44.492;11.372;2024-01-10T02:23:30;28.13;;;9.03;;
18084;SDS011;9169;44.492;11.372;2024-01-10T02:26:00;26.87;;;8.47;;
18084;SDS011;9169;44.492;11.372;2024-01-10T02:28:29;28.83;;;9.10;;
18084;SDS011;9169;44.492;11.372;2024-01-10T02:30:57;27.60;;;9.00;;
18084;SDS011;9169;44.492;11.372;2024-01-10T02:33:27;26.70;;;9.30;;
18084;SDS011;9169;44.492;11.372;2024-01-10T02:35:56;36.33;;;9.23;;
18084;SDS011;9169;44.492;11.372;2024-01-10T02:38:24;28.20;;;8.77;;
18084;SDS011;9169;44.492;11.372;2024-01-10T02:40:53;30.60;;;8.70;;
18084;SDS011;9169;44.492;11.372;2024-01-10T02:43:24;33.43;;;8.83;;
18084;SDS011;9169;44.492;11.372;2024-01-10T02:45:53;29.47;;;8.50;;
18084;SDS011;9169;44.492;11.372;2024-01-10T02:48:22;30.53;;;8.97;;
18084;SDS011;9169;44.492;11.372;2024-01-10T02:50:51;30.53;;;8.17;;
18084;SDS011;9169;44.492;11.372;2024-01-10T02:53:21;30.03;;;8.70;;
18084;SDS011;9169;44.492;11.372;2024-01-10T02:55:50;30.53;;;9.07;;
18084;SDS011;9169;44.492;11.372;2024-01-10T02:58:19;27.60;;;8.33;;
18084;SDS011;9169;44.492;11.372;2024-01-10T03:00:50;27.30;;;8.00;;
18084;SDS011;9169;44.492;11.372;2024-01-10T03:03:18;27.57;;;9.20;;
18084;SDS011;9169;44.492;11.372;2024-01-10T03:05:47;31.37;;;9.30;;
18084;SDS011;9169;44.492;11.372;2024-01-10T03:08:16;28.13;;;8.03;;
18084;SDS011;9169;44.492;11.372;2024-01-10T03:10:45;27.47;;;8.70;;
18084;SDS011;9169;44.492;11.372;2024-01-10T03:13:13;29.07;;;8.90;;
18084;SDS011;9169;44.492;11.372;2024-01-10T03:15:42;26.13;;;8.17;;
18084;SDS011;9169;44.492;11.372;2024-01-10T03:18:12;29.60;;;8.70;;
18084;SDS011;9169;44.492;11.372;2024-01-10T03:20:42;28.03;;;9.00;;
18084;SDS011;9169;44.492;11.372;2024-01-10T03:23:11;24.80;;;8.30;;
18084;SDS011;9169;44.492;11.372;2024-01-10T03:25:40;24.70;;;8.07;;
18084;SDS011;9169;44.492;11.372;2024-01-10T03:28:08;32.00;;;8.77;;
18084;SDS011;9169;44.492;11.372;2024-01-10T03:30:37;24.33;;;8.80;;
18084;SDS011;9169;44.492;11.372;2024-01-10T03:33:06;31.13;;;9.10;;
18084;SDS011;9169;44.492;11.372;2024-01-10T03:35:36;25.33;;;8.20;;
18084;SDS011;9169;44.492;11.372;2024-01-10T03:38:05;26.60;;;8.70;;
18084;SDS011;9169;44.492;11.372;2024-01-10T03:40:34;25.07;;;8.80;;
18084;SDS011;9169;44.492;11.372;2024-01-10T03:43:03;26.40;;;8.20;;
18084;SDS011;9169;44.492;11.372;2024-01-10T03:45:32;29.00;;;9.03;;
18084;SDS011;9169;44.492;11.372;2024-01-10T03:48:01;29.00;;;9.10;;
18084;SDS011;9169;44.492;11.372;2024-01-10T03:50:30;29.17;;;8.80;;
18084;SDS011;9169;44.492;11.372;2024-01-10T03:53:00;26.20;;;9.00;;
18084;SDS011;9169;44.492;11.372;2024-01-10T03:55:29;28.70;;;9.03;;
18084;SDS011;9169;44.492;11.372;2024-01-10T03:57:58;26.30;;;8.37;;
18084;SDS011;9169;44.492;11.372;2024-01-10T04:00:27;27.77;;;8.57;;
18084;SDS011;9169;44.492;11.372;2024-01-10T04:02:56;31.07;;;8.43;;
18084;SDS011;9169;44.492;11.372;2024-01-10T04:05:25;32.20;;;9.30;;
18084;SDS011;9169;44.492;11.372;2024-01-10T04:07:54;31.70;;;9.23;;
18084;SDS011;9169;44.492;11.372;2024-01-10T04:10:25;29.10;;;9.30;;
18084;SDS011;9169;44.492;11.372;2024-01-10T04:12:53;36.40;;;9.87;;
18084;SDS011;9169;44.492;11.372;2024-01-10T04:15:22;27.77;;;8.73;;
18084;SDS011;9169;44.492;11.372;2024-01-10T04:17:51;29.97;;;9.10;;
18084;SDS011;9169;44.492;11.372;2024-01-10T04:20:20;33.03;;;9.90;;
18084;SDS011;9169;44.492;11.372;2024-01-10T04:22:48;33.30;;;10.77;;
18084;SDS011;9169;44.492;11.372;2024-01-10T04:25:17;29.83;;;9.33;;
18084;SDS011;9169;44.492;11.372;2024-01-10T04:27:47;28.77;;;9.50;;
18084;SDS011;9169;44.492;11.372;2024-01-10T04:30:17;30.03;;;10.67;;
18084;SDS011;9169;44.492;11.372;2024-01-10T04:32:46;34.00;;;9.53;;
18084;SDS011;9169;44.492;11.372;2024-01-10T04:35:14;28.23;;;8.93;;
18084;SDS011;9169;44.492;11.372;2024-01-10T04:37:43;32.50;;;9.43;;
18084;SDS011;9169;44.492;11.372;2024-01-10T04:40:11;33.00;;;10.20;;
18084;SDS011;9169;44.492;11.372;2024-01-10T04:42:40;35.43;;;9.80;;
18084;SDS011;9169;44.492;11.372;2024-01-10T04:45:10;31.57;;;9.40;;
18084;SDS011;9169;44.492;11.372;2024-01-10T04:47:39;30.60;;;9.83;;
18084;SDS011;9169;44.492;11.372;2024-01-10T04:50:08;40.70;;;11.20;;
18084;SDS011;9169;44.492;11.372;2024-01-10T04:52:38;31.93;;;9.57;;
18084;SDS011;9169;44.492;11.372;2024-01-10T04:55:07;39.63;;;8.93;;
18084;SDS011;9169;44.492;11.372;2024-01-10T04:57:37;30.93;;;9.20;;
18084;SDS011;9169;44.492;11.372;2024-01-10T05:00:06;32.77;;;9.33;;
18084;SDS011;9169;44.492;11.372;2024-01-10T05:02:37;31.47;;;9.57;;
18084;SDS011;9169;44.492;11.372;2024-01-10T05:05:06;32.17;;;10.03;;
18084;SDS011;9169;44.492;11.372;2024-01-10T05:07:35;35.30;;;10.47;;
18084;SDS011;9169;44.492;11.372;2024-01-10T05:10:04;35.40;;;9.97;;
18084;SDS011;9169;44.492;11.372;2024-01-10T05:12:33;33.00;;;9.70;;
18084;SDS011;9169;44.492;11.372;2024-01-10T05:15:02;38.53;;;10.87;;
18084;SDS011;9169;44.492;11.372;2024-01-10T05:17:31;34.80;;;9.47;;
18084;SDS011;9169;44.492;11.372;2024-01-10T05:20:01;35.80;;;10.03;;
18084;SDS011;9169;44.492;11.372;2024-01-10T05:22:30;32.10;;;9.80;;
18084;SDS011;9169;44.492;11.372;2024-01-10T05:24:59;34.37;;;9.77;;
18084;SDS011;9169;44.492;11.372;2024-01-10T05:27:28;30.10;;;9.03;;
18084;SDS011;9169;44.492;11.372;2024-01-10T05:29:57;34.27;;;9.93;;
18084;SDS011;9169;44.492;11.372;2024-01-10T05:32:26;32.20;;;8.80;;
18084;SDS011;9169;44.492;11.372;2024-01-10T05:34:55;30.73;;;9.57;;
18084;SDS011;9169;44.492;11.372;2024-01-10T05:37:25;34.80;;;10.50;;
18084;SDS011;9169;44.492;11.372;2024-01-10T05:39:53;35.60;;;8.70;;
18084;SDS011;9169;44.492;11.372;2024-01-10T05:42:22;31.63;;;9.30;;
18084;SDS011;9169;44.492;11.372;2024-01-10T05:44:51;41.27;;;10.33;;
18084;SDS011;9169;44.492;11.372;2024-01-10T05:47:20;30.10;;;9.47;;
18084;SDS011;9169;44.492;11.372;2024-01-10T05:49:49;31.30;;;10.03;;
18084;SDS011;9169;44.492;11.372;2024-01-10T05:52:17;36.23;;;9.63;;
18084;SDS011;9169;44.492;11.372;2024-01-10T05:54:48;29.90;;;8.70;;
18084;SDS011;9169;44.492;11.372;2024-01-10T05:57:17;29.57;;;9.13;;
18084;SDS011;9169;44.492;11.372;2024-01-10T05:59:47;27.63;;;9.40;;
18084;SDS011;9169;44.492;11.372;2024-01-10T06:02:18;32.50;;;9.80;;
18084;SDS011;9169;44.492;11.372;2024-01-10T06:04:47;31.07;;;9.17;;
18084;SDS011;9169;44.492;11.372;2024-01-10T06:07:16;34.47;;;9.73;;
18084;SDS011;9169;44.492;11.372;2024-01-10T06:09:44;31.33;;;10.30;;
18084;SDS011;9169;44.492;11.372;2024-01-10T06:12:14;31.07;;;10.53;;
18084;SDS011;9169;44.492;11.372;2024-01-10T06:14:44;32.37;;;10.87;;
18084;SDS011;9169;44.492;11.372;2024-01-10T06:17:13;30.10;;;10.13;;
18084;SDS011;9169;44.492;11.372;2024-01-10T06:19:42;30.80;;;10.17;;
18084;SDS011;9169;44.492;11.372;2024-01-10T06:22:10;49.67;;;10.90;;
18084;SDS011;9169;44.492;11.372;2024-01-10T06:24:39;33.93;;;10.27;;
18084;SDS011;9169;44.492;11.372;2024-01-10T06:27:08;37.20;;;10.37;;
18084;SDS011;9169;44.492;11.372;2024-01-10T06:29:39;33.83;;;10.37;;
18084;SDS011;9169;44.492;11.372;2024-01-10T06:32:11;34.57;;;11.17;;
18084;SDS011;9169;44.492;11.372;2024-01-10T06:34:41;27.40;;;8.73;;
18084;SDS011;9169;44.492;11.372;2024-01-10T06:37:10;32.67;;;9.27;;
18084;SDS011;9169;44.492;11.372;2024-01-10T06:39:39;30.57;;;9.23;;
18084;SDS011;9169;44.492;11.372;2024-01-10T06:42:10;29.70;;;9.57;;
18084;SDS011;9169;44.492;11.372;2024-01-10T06:44:41;31.40;;;10.10;;
18084;SDS011;9169;44.492;11.372;2024-01-10T06:47:09;29.33;;;9.90;;
18084;SDS011;9169;44.492;11.372;2024-01-10T06:49:38;28.27;;;9.23;;
18084;SDS011;9169;44.492;11.372;2024-01-10T06:52:07;33.33;;;9.80;;
18084;SDS011;9169;44.492;11.372;2024-01-10T06:54:37;30.90;;;9.90;;
18084;SDS011;9169;44.492;11.372;2024-01-10T06:57:06;29.60;;;10.13;;
18084;SDS011;9169;44.492;11.372;2024-01-10T06:59:34;30.83;;;10.00;;
18084;SDS011;9169;44.492;11.372;2024-01-10T07:02:05;27.90;;;9.27;;
18084;SDS011;9169;44.492;11.372;2024-01-10T07:04:36;26.53;;;8.50;;
18084;SDS011;9169;44.492;11.372;2024-01-10T07:07:05;32.40;;;9.97;;
18084;SDS011;9169;44.492;11.372;2024-01-10T07:09:35;27.27;;;8.90;;
18084;SDS011;9169;44.492;11.372;2024-01-10T07:12:06;31.37;;;10.67;;
18084;SDS011;9169;44.492;11.372;2024-01-10T07:14:35;32.30;;;10.60;;
18084;SDS011;9169;44.492;11.372;2024-01-10T07:17:05;28.50;;;9.70;;
18084;SDS011;9169;44.492;11.372;2024-01-10T07:19:34;32.90;;;10.03;;
18084;SDS011;9169;44.492;11.372;2024-01-10T07:22:03;31.00;;;9.63;;
18084;SDS011;9169;44.492;11.372;2024-01-10T07:24:32;39.47;;;11.43;;
18084;SDS011;9169;44.492;11.372;2024-01-10T07:27:01;37.97;;;10.23;;
18084;SDS011;9169;44.492;11.372;2024-01-10T07:29:30;32.23;;;9.50;;
18084;SDS011;9169;44.492;11.372;2024-01-10T07:31:59;31.70;;;9.80;;
18084;SDS011;9169;44.492;11.372;2024-01-10T07:34:29;31.40;;;11.13;;
18084;SDS011;9169;44.492;11.372;2024-01-10T07:36:59;32.97;;;9.50;;
18084;SDS011;9169;44.492;11.372;2024-01-10T07:39:28;31.20;;;9.23;;
18084;SDS011;9169;44.492;11.372;2024-01-10T07:41:56;27.67;;;9.20;;
18084;SDS011;9169;44.492;11.372;2024-01-10T07:44:25;25.87;;;9.40;;
18084;SDS011;9169;44.492;11.372;2024-01-10T07:46:55;40.20;;;9.93;;
18084;SDS011;9169;44.492;11.372;2024-01-10T07:49:23;32.33;;;9.77;;
18084;SDS011;9169;44.492;11.372;2024-01-10T07:51:54;32.13;;;9.77;;
18084;SDS011;9169;44.492;11.372;2024-01-10T07:54:23;31.53;;;10.63;;
18084;SDS011;9169;44.492;11.372;2024-01-10T07:56:51;32.30;;;10.33;;
18084;SDS011;9169;44.492;11.372;2024-01-10T07:59:21;29.37;;;10.37;;
18084;SDS011;9169;44.492;11.372;2024-01-10T08:01:54;26.77;;;9.50;;
18084;SDS011;9169;44.492;11.372;2024-01-10T08:04:25;29.77;;;10.17;;
18084;SDS011;9169;44.492;11.372;2024-01-10T08:06:55;28.53;;;9.83;;
18084;SDS011;9169;44.492;11.372;2024-01-10T08:09:24;26.87;;;9.77;;
18084;SDS011;9169;44.492;11.372;2024-01-10T08:11:54;32.23;;;9.23;;
18084;SDS011;9169;44.492;11.372;2024-01-10T08:14:23;30.40;;;9.97;;
18084;SDS011;9169;44.492;11.372;2024-01-10T08:16:51;27.87;;;9.63;;
18084;SDS011;9169;44.492;11.372;2024-01-10T08:19:21;26.63;;;9.17;;
18084;SDS011;9169;44.492;11.372;2024-01-10T08:21:50;28.00;;;9.70;;
18084;SDS011;9169;44.492;11.372;2024-01-10T08:24:21;25.70;;;9.70;;
18084;SDS011;9169;44.492;11.372;2024-01-10T08:26:49;28.23;;;10.10;;
18084;SDS011;9169;44.492;11.372;2024-01-10T08:29:18;35.17;;;10.47;;
18084;SDS011;9169;44.492;11.372;2024-01-10T08:31:47;26.33;;;9.10;;
18084;SDS011;9169;44.492;11.372;2024-01-10T08:34:17;26.27;;;9.50;;
18084;SDS011;9169;44.492;11.372;2024-01-10T08:36:46;28.13;;;10.17;;
18084;SDS011;9169;44.492;11.372;2024-01-10T08:39:17;23.00;;;8.87;;
18084;SDS011;9169;44.492;11.372;2024-01-10T08:41:47;21.77;;;8.90;;
18084;SDS011;9169;44.492;11.372;2024-01-10T08:44:16;25.50;;;8.80;;
18084;SDS011;9169;44.492;11.372;2024-01-10T08:46:45;28.70;;;9.53;;
18084;SDS011;9169;44.492;11.372;2024-01-10T08:49:14;25.10;;;10.97;;
18084;SDS011;9169;44.492;11.372;2024-01-10T08:51:43;21.73;;;9.00;;
18084;SDS011;9169;44.492;11.372;2024-01-10T08:54:13;21.93;;;9.30;;
18084;SDS011;9169;44.492;11.372;2024-01-10T08:56:47;30.40;;;10.17;;
18084;SDS011;9169;44.492;11.372;2024-01-10T08:59:16;24.20;;;7.97;;
18084;SDS011;9169;44.492;11.372;2024-01-10T09:01:45;23.77;;;9.80;;
18084;SDS011;9169;44.492;11.372;2024-01-10T09:04:14;25.73;;;9.03;;
18084;SDS011;9169;44.492;11.372;2024-01-10T09:06:43;24.70;;;8.20;;
18084;SDS011;9169;44.492;11.372;2024-01-10T09:09:11;21.90;;;8.93;;
18084;SDS011;9169;44.492;11.372;2024-01-10T09:11:42;24.03;;;8.30;;
18084;SDS011;9169;44.492;11.372;2024-01-10T09:14:13;18.33;;;8.17;;
18084;SDS011;9169;44.492;11.372;2024-01-10T09:16:42;19.23;;;8.53;;
18084;SDS011;9169;44.492;11.372;2024-01-10T09:19:10;18.77;;;8.60;;
18084;SDS011;9169;44.492;11.372;2024-01-10T09:21:40;16.37;;;8.07;;
18084;SDS011;9169;44.492;11.372;2024-01-10T09:24:09;17.77;;;8.43;;
18084;SDS011;9169;44.492;11.372;2024-01-10T09:26:39;18.03;;;8.23;;
18084;SDS011;9169;44.492;11.372;2024-01-10T09:29:08;25.27;;;9.80;;
18084;SDS011;9169;44.492;11.372;2024-01-10T09:31:38;19.03;;;10.03;;
18084;SDS011;9169;44.492;11.372;2024-01-10T09:34:07;20.10;;;8.17;;
18084;SDS011;9169;44.492;11.372;2024-01-10T09:36:35;19.23;;;8.63;;
18084;SDS011;9169;44.492;11.372;2024-01-10T09:39:04;19.30;;;8.87;;
18084;SDS011;9169;44.492;11.372;2024-01-10T09:41:40;15.23;;;8.30;;
18084;SDS011;9169;44.492;11.372;2024-01-10T09:44:14;19.63;;;8.53;;
18084;SDS011;9169;44.492;11.372;2024-01-10T09:46:48;18.77;;;8.60;;
18084;SDS011;9169;44.492;11.372;2024-01-10T09:49:19;17.10;;;9.40;;
18084;SDS011;9169;44.492;11.372;2024-01-10T09:51:49;17.57;;;9.57;;
18084;SDS011;9169;44.492;11.372;2024-01-10T09:54:22;16.47;;;9.80;;
18084;SDS011;9169;44.492;11.372;2024-01-10T09:56:54;17.93;;;9.37;;
18084;SDS011;9169;44.492;11.372;2024-01-10T09:59:22;17.20;;;9.20;;
18084;SDS011;9169;44.492;11.372;2024-01-10T10:01:53;17.47;;;8.43;;
18084;SDS011;9169;44.492;11.372;2024-01-10T10:04:23;22.60;;;10.37;;
18084;SDS011;9169;44.492;11.372;2024-01-10T10:06:58;24.63;;;10.13;;
18084;SDS011;9169;44.492;11.372;2024-01-10T10:09:28;17.60;;;8.83;;
18084;SDS011;9169;44.492;11.372;2024-01-10T10:11:57;19.43;;;9.47;;
18084;SDS011;9169;44.492;11.372;2024-01-10T10:14:28;17.83;;;8.93;;
18084;SDS011;9169;44.492;11.372;2024-01-10T10:16:58;19.53;;;10.53;;
18084;SDS011;9169;44.492;11.372;2024-01-10T10:19:42;16.50;;;8.43;;
18084;SDS011;9169;44.492;11.372;2024-01-10T10:22:12;19.27;;;9.30;;
18084;SDS011;9169;44.492;11.372;2024-01-10T10:24:40;17.77;;;9.60;;
18084;SDS011;9169;44.492;11.372;2024-01-10T10:27:11;18.53;;;9.23;;
18084;SDS011;9169;44.492;11.372;2024-01-10T10:29:40;18.20;;;9.80;;
18084;SDS011;9169;44.492;11.372;2024-01-10T10:32:12;18.23;;;9.83;;
18084;SDS011;9169;44.492;11.372;2024-01-10T10:34:40;19.00;;;9.00;;
18084;SDS011;9169;44.492;11.372;2024-01-10T10:37:28;16.40;;;8.60;;
18084;SDS011;9169;44.492;11.372;2024-01-10T10:39:57;18.90;;;9.70;;
18084;SDS011;9169;44.492;11.372;2024-01-10T10:42:26;18.17;;;9.97;;
18084;SDS011;9169;44.492;11.372;2024-01-10T10:45:01;18.60;;;9.00;;
18084;SDS011;9169;44.492;11.372;2024-01-10T10:47:34;20.00;;;10.07;;
18084;SDS011;9169;44.492;11.372;2024-01-10T10:50:06;20.90;;;10.03;;
18084;SDS011;9169;44.492;11.372;2024-01-10T10:52:38;15.90;;;9.40;;
18084;SDS011;9169;44.492;11.372;2024-01-10T10:55:11;23.33;;;9.40;;
18084;SDS011;9169;44.492;11.372;2024-01-10T10:57:43;18.13;;;9.30;;
18084;SDS011;9169;44.492;11.372;2024-01-10T11:00:18;18.90;;;10.57;;
18084;SDS011;9169;44.492;11.372;2024-01-10T11:02:50;19.27;;;9.90;;
18084;SDS011;9169;44.492;11.372;2024-01-10T11:05:18;20.70;;;10.27;;
18084;SDS011;9169;44.492;11.372;2024-01-10T11:07:48;17.47;;;9.80;;
18084;SDS011;9169;44.492;11.372;2024-01-10T11:10:21;19.97;;;10.27;;
18084;SDS011;9169;44.492;11.372;2024-01-10T11:13:00;17.47;;;9.73;;
18084;SDS011;9169;44.492;11.372;2024-01-10T11:15:48;17.10;;;9.43;;
18084;SDS011;9169;44.492;11.372;2024-01-10T11:18:37;16.63;;;9.10;;
18084;SDS011;9169;44.492;11.372;2024-01-10T11:21:19;18.10;;;10.27;;
18084;SDS011;9169;44.492;11.372;2024-01-10T11:23:54;17.47;;;10.10;;
18084;SDS011;9169;44.492;11.372;2024-01-10T11:26:25;20.20;;;9.80;;
18084;SDS011;9169;44.492;11.372;2024-01-10T11:28:55;17.43;;;9.73;;
18084;SDS011;9169;44.492;11.372;2024-01-10T11:31:27;19.37;;;9.63;;
18084;SDS011;9169;44.492;11.372;2024-01-10T11:34:01;19.83;;;9.97;;
18084;SDS011;9169;44.492;11.372;2024-01-10T11:36:30;20.93;;;10.50;;
18084;SDS011;9169;44.492;11.372;2024-01-10T11:38:59;18.20;;;10.17;;
18084;SDS011;9169;44.492;11.372;2024-01-10T11:41:32;20.67;;;9.90;;
18084;SDS011;9169;44.492;11.372;2024-01-10T11:44:25;19.07;;;10.23;;
18084;SDS011;9169;44.492;11.372;2024-01-10T11:46:53;15.20;;;9.30;;
18084;SDS011;9169;44.492;11.372;2024-01-10T11:49:24;19.70;;;9.40;;
18084;SDS011;9169;44.492;11.372;2024-01-10T11:51:54;18.57;;;9.97;;
18084;SDS011;9169;44.492;11.372;2024-01-10T11:54:41;18.37;;;9.83;;
18084;SDS011;9169;44.492;11.372;2024-01-10T11:57:11;17.93;;;9.40;;
18084;SDS011;9169;44.492;11.372;2024-01-10T11:59:41;17.93;;;9.50;;
18084;SDS011;9169;44.492;11.372;2024-01-10T12:02:11;19.30;;;10.00;;
18084;SDS011;9169;44.492;11.372;2024-01-10T12:04:43;17.57;;;9.63;;
18084;SDS011;9169;44.492;11.372;2024-01-10T12:07:13;16.90;;;9.27;;
18084;SDS011;9169;44.492;11.372;2024-01-10T12:09:42;16.47;;;9.40;;
18084;SDS011;9169;44.492;11.372;2024-01-10T12:12:11;18.90;;;10.50;;
18084;SDS011;9169;44.492;11.372;2024-01-10T12:14:40;21.33;;;9.70;;
18084;SDS011;9169;44.492;11.372;2024-01-10T12:17:11;17.97;;;10.60;;
18084;SDS011;9169;44.492;11.372;2024-01-10T12:19:39;17.87;;;10.03;;
18084;SDS011;9169;44.492;11.372;2024-01-10T12:22:13;17.63;;;9.87;;
18084;SDS011;9169;44.492;11.372;2024-01-10T12:24:44;17.20;;;9.57;;
18084;SDS011;9169;44.492;11.372;2024-01-10T12:27:16;25.10;;;10.50;;
18084;SDS011;9169;44.492;11.372;2024-01-10T12:29:47;19.93;;;10.63;;
18084;SDS011;9169;44.492;11.372;2024-01-10T12:32:17;18.07;;;9.33;;
18084;SDS011;9169;44.492;11.372;2024-01-10T12:34:47;20.90;;;11.03;;
18084;SDS011;9169;44.492;11.372;2024-01-10T12:37:17;18.10;;;10.80;;
18084;SDS011;9169;44.492;11.372;2024-01-10T12:39:47;19.87;;;10.60;;
18084;SDS011;9169;44.492;11.372;2024-01-10T12:42:16;19.47;;;9.97;;
18084;SDS011;9169;44.492;11.372;2024-01-10T12:44:47;19.00;;;10.30;;
18084;SDS011;9169;44.492;11.372;2024-01-10T12:47:18;19.37;;;10.40;;
18084;SDS011;9169;44.492;11.372;2024-01-10T12:49:48;18.37;;;11.10;;
18084;SDS011;9169;44.492;11.372;2024-01-10T12:52:18;16.83;;;10.10;;
18084;SDS011;9169;44.492;11.372;2024-01-10T12:54:48;19.93;;;10.90;;
18084;SDS011;9169;44.492;11.372;2024-01-10T12:57:18;19.83;;;11.23;;
18084;SDS011;9169;44.492;11.372;2024-01-10T12:59:46;19.37;;;10.57;;
18084;SDS011;9169;44.492;11.372;2024-01-10T13:02:15;17.47;;;9.90;;
18084;SDS011;9169;44.492;11.372;2024-01-10T13:04:44;21.60;;;10.77;;
18084;SDS011;9169;44.492;11.372;2024-01-10T13:07:13;21.00;;;10.97;;
18084;SDS011;9169;44.492;11.372;2024-01-10T13:09:43;18.53;;;10.97;;
18084;SDS011;9169;44.492;11.372;2024-01-10T13:12:12;25.23;;;11.53;;
18084;SDS011;9169;44.492;11.372;2024-01-10T13:14:41;22.73;;;11.27;;
18084;SDS011;9169;44.492;11.372;2024-01-10T13:17:09;21.03;;;10.63;;
18084;SDS011;9169;44.492;11.372;2024-01-10T13:19:38;18.93;;;11.20;;
18084;SDS011;9169;44.492;11.372;2024-01-10T13:22:07;22.00;;;11.43;;
18084;SDS011;9169;44.492;11.372;2024-01-10T13:24:36;19.10;;;10.80;;
18084;SDS011;9169;44.492;11.372;2024-01-10T13:27:06;18.70;;;10.27;;
18084;SDS011;9169;44.492;11.372;2024-01-10T13:29:36;25.87;;;10.50;;
18084;SDS011;9169;44.492;11.372;2024-01-10T13:32:05;17.93;;;10.13;;
18084;SDS011;9169;44.492;11.372;2024-01-10T13:34:35;16.97;;;9.60;;
18084;SDS011;9169;44.492;11.372;2024-01-10T13:37:03;23.10;;;11.20;;
18084;SDS011;9169;44.492;11.372;2024-01-10T13:39:32;19.13;;;10.83;;
18084;SDS011;9169;44.492;11.372;2024-01-10T13:42:01;17.67;;;10.00;;
18084;SDS011;9169;44.492;11.372;2024-01-10T13:44:32;18.90;;;10.13;;
18084;SDS011;9169;44.492;11.372;2024-01-10T13:47:00;22.80;;;11.30;;
18084;SDS011;9169;44.492;11.372;2024-01-10T13:49:30;20.33;;;10.43;;
18084;SDS011;9169;44.492;11.372;2024-01-10T13:52:00;19.37;;;11.53;;
18084;SDS011;9169;44.492;11.372;2024-01-10T13:54:31;20.37;;;11.03;;
18084;SDS011;9169;44.492;11.372;2024-01-10T13:57:00;19.87;;;10.47;;
18084;SDS011;9169;44.492;11.372;2024-01-10T13:59:31;20.50;;;10.53;;
18084;SDS011;9169;44.492;11.372;2024-01-10T14:02:00;27.93;;;12.03;;
18084;SDS011;9169;44.492;11.372;2024-01-10T14:04:29;20.60;;;9.80;;
18084;SDS011;9169;44.492;11.372;2024-01-10T14:06:57;20.60;;;10.90;;
18084;SDS011;9169;44.492;11.372;2024-01-10T14:09:26;22.40;;;10.47;;
18084;SDS011;9169;44.492;11.372;2024-01-10T14:11:55;24.23;;;11.80;;
18084;SDS011;9169;44.492;11.372;2024-01-10T14:14:23;20.20;;;11.37;;
18084;SDS011;9169;44.492;11.372;2024-01-10T14:16:53;19.70;;;10.00;;
18084;SDS011;9169;44.492;11.372;2024-01-10T14:19:22;20.27;;;12.17;;
18084;SDS011;9169;44.492;11.372;2024-01-10T14:21:51;26.73;;;10.87;;
18084;SDS011;9169;44.492;11.372;2024-01-10T14:24:21;19.53;;;10.80;;
18084;SDS011;9169;44.492;11.372;2024-01-10T14:26:51;19.80;;;10.77;;
18084;SDS011;9169;44.492;11.372;2024-01-10T14:29:20;22.07;;;11.80;;
18084;SDS011;9169;44.492;11.372;2024-01-10T14:31:50;23.70;;;11.23;;
18084;SDS011;9169;44.492;11.372;2024-01-10T14:34:23;24.53;;;12.13;;
18084;SDS011;9169;44.492;11.372;2024-01-10T14:36:52;28.83;;;12.30;;
18084;SDS011;9169;44.492;11.372;2024-01-10T14:39:20;26.93;;;11.20;;
18084;SDS011;9169;44.492;11.372;2024-01-10T14:41:49;22.60;;;11.27;;
18084;SDS011;9169;44.492;11.372;2024-01-10T14:44:18;23.30;;;11.60;;
18084;SDS011;9169;44.492;11.372;2024-01-10T14:46:46;20.40;;;10.90;;